createdAt,value
2017-03-26T00:00:53.475Z,11.25
2017-03-26T00:01:52.375Z,10.97
2017-03-26T00:02:50.916Z,14.67
2017-03-26T00:03:50.169Z,10.22
2017-03-26T00:04:48.977Z,12.20
2017-03-26T00:05:47.696Z,10.62
2017-03-26T00:06:46.916Z,12.88
2017-03-26T00:07:46.149Z,13.35
2017-03-26T00:08:45.392Z,12.97
2017-03-26T00:09:43.851Z,13.88
2017-03-26T00:10:42.596Z,12.03
2017-03-26T00:11:41.825Z,12.45
2017-03-26T00:12:41.035Z,8.98
2017-03-26T00:13:39.505Z,10.57
2017-03-26T00:14:38.760Z,12.87
2017-03-26T00:15:37.212Z,12.60
2017-03-26T00:16:35.975Z,11.75
2017-03-26T00:17:34.425Z,12.73
2017-03-26T00:18:32.869Z,10.83
2017-03-26T00:19:31.334Z,12.58
2017-03-26T00:20:29.789Z,11.68
2017-03-26T00:21:29.066Z,11.03
2017-03-26T00:22:28.704Z,11.30
2017-03-26T00:23:27.154Z,11.75
2017-03-26T00:24:25.619Z,14.18
2017-03-26T00:25:24.263Z,9.70
2017-03-26T00:26:23.518Z,11.05
2017-03-26T00:27:23.504Z,9.75
2017-03-26T00:28:22.299Z,9.63
2017-03-26T00:29:20.801Z,14.08
2017-03-26T00:30:20.036Z,7.63
2017-03-26T00:31:18.480Z,10.92
2017-03-26T00:32:16.963Z,11.68
2017-03-26T00:33:15.416Z,9.60
2017-03-26T00:34:14.177Z,9.70
2017-03-26T00:35:12.665Z,8.92
2017-03-26T00:36:11.150Z,8.52
2017-03-26T00:37:10.389Z,7.68
2017-03-26T00:38:09.596Z,7.72
2017-03-26T00:39:08.066Z,8.85
2017-03-26T00:40:07.632Z,12.43
2017-03-26T00:41:06.112Z,9.80
2017-03-26T00:42:04.582Z,10.25
2017-03-26T00:43:03.118Z,10.98
2017-03-26T00:44:01.573Z,11.30
2017-03-26T00:45:00.984Z,9.28
2017-03-26T00:45:59.741Z,11.35
2017-03-26T00:46:58.963Z,10.63
2017-03-26T00:47:58.213Z,9.23
2017-03-26T00:48:56.676Z,10.82
2017-03-26T00:49:55.124Z,9.82
2017-03-26T00:50:54.057Z,10.57
2017-03-26T00:51:53.600Z,13.55
2017-03-26T00:52:52.077Z,10.18
2017-03-26T00:53:50.531Z,10.65
2017-03-26T00:54:49.044Z,10.20
2017-03-26T00:55:48.280Z,14.43
2017-03-26T00:56:46.738Z,11.38
2017-03-26T00:57:45.521Z,10.47
2017-03-26T00:58:43.962Z,8.12
2017-03-26T00:59:42.444Z,11.53
2017-03-26T01:00:40.941Z,8.63
2017-03-26T01:01:39.404Z,10.70
2017-03-26T01:02:37.857Z,9.53
2017-03-26T01:03:36.612Z,10.28
2017-03-26T01:04:35.064Z,11.83
2017-03-26T01:05:33.523Z,9.87
2017-03-26T01:06:31.999Z,9.15
2017-03-26T01:07:31.249Z,10.75
2017-03-26T01:08:30.622Z,12.12
2017-03-26T01:09:30.160Z,10.33
2017-03-26T01:10:29.416Z,12.02
2017-03-26T01:11:27.954Z,12.90
2017-03-26T01:12:26.433Z,11.63
2017-03-26T01:13:25.660Z,11.28
2017-03-26T01:14:24.166Z,11.62
2017-03-26T01:15:22.996Z,8.63
2017-03-26T01:16:22.288Z,10.43
2017-03-26T01:17:21.525Z,11.52
2017-03-26T01:18:20.053Z,7.70
2017-03-26T01:19:19.306Z,10.25
2017-03-26T01:20:18.540Z,9.13
2017-03-26T01:21:17.381Z,7.63
2017-03-26T01:22:16.620Z,11.57
2017-03-26T01:23:15.865Z,8.25
2017-03-26T01:24:14.361Z,9.28
2017-03-26T01:25:13.625Z,9.20
2017-03-26T01:26:12.096Z,10.95
2017-03-26T01:27:11.645Z,7.87
2017-03-26T01:28:10.902Z,10.12
2017-03-26T01:29:10.232Z,9.25
2017-03-26T01:30:08.723Z,11.87
2017-03-26T01:31:07.284Z,8.60
2017-03-26T01:32:05.765Z,8.92
2017-03-26T01:33:05.313Z,9.33
2017-03-26T01:34:03.852Z,10.20
2017-03-26T01:35:02.332Z,13.07
2017-03-26T01:36:00.816Z,12.07
2017-03-26T01:36:59.304Z,13.48
2017-03-26T01:37:57.747Z,11.25
2017-03-26T01:38:56.492Z,11.95
2017-03-26T01:39:54.943Z,9.42
2017-03-26T01:40:53.434Z,11.80
2017-03-26T01:41:51.935Z,13.63
2017-03-26T01:42:51.161Z,10.22
2017-03-26T01:43:50.404Z,14.08
2017-03-26T01:44:50.044Z,9.08
2017-03-26T01:45:48.523Z,9.70
2017-03-26T01:46:46.989Z,8.60
2017-03-26T01:47:45.453Z,12.37
2017-03-26T01:48:43.899Z,10.87
2017-03-26T01:49:42.360Z,9.17
2017-03-26T01:50:41.873Z,11.27
2017-03-26T01:51:41.104Z,10.07
2017-03-26T01:52:40.401Z,10.42
2017-03-26T01:53:38.835Z,10.13
2017-03-26T01:54:37.291Z,9.77
2017-03-26T01:55:35.798Z,9.78
2017-03-26T01:56:34.525Z,9.28
2017-03-26T01:57:33.792Z,11.52
2017-03-26T01:58:33.013Z,11.35
2017-03-26T01:59:32.262Z,11.17
2017-03-26T02:00:30.735Z,11.02
2017-03-26T02:01:30.696Z,12.15
2017-03-26T02:02:30.244Z,14.35
2017-03-26T02:03:29.488Z,10.52
2017-03-26T02:04:28.749Z,8.65
2017-03-26T02:05:27.983Z,9.90
2017-03-26T02:06:26.576Z,11.78
2017-03-26T02:07:25.793Z,7.80
2017-03-26T02:08:24.565Z,11.98
2017-03-26T02:09:23.029Z,9.92
2017-03-26T02:10:21.512Z,8.65
2017-03-26T02:11:20.001Z,12.63
2017-03-26T02:12:18.459Z,10.12
2017-03-26T02:13:16.921Z,11.78
2017-03-26T02:14:15.773Z,10.85
2017-03-26T02:15:15.040Z,9.92
2017-03-26T02:16:14.319Z,11.33
2017-03-26T02:17:12.797Z,12.22
2017-03-26T02:18:12.041Z,12.03
2017-03-26T02:19:11.300Z,9.40
2017-03-26T02:20:10.062Z,14.58
2017-03-26T02:21:08.560Z,12.85
2017-03-26T02:22:07.074Z,10.17
2017-03-26T02:23:05.585Z,11.72
2017-03-26T02:24:04.833Z,13.18
2017-03-26T02:25:03.288Z,12.88
2017-03-26T02:26:02.157Z,11.48
2017-03-26T02:27:00.644Z,15.28
2017-03-26T02:27:59.102Z,12.63
2017-03-26T02:28:58.329Z,10.95
2017-03-26T02:29:57.549Z,8.73
2017-03-26T02:30:56.022Z,10.95
2017-03-26T02:31:54.932Z,13.65
2017-03-26T02:32:54.215Z,14.48
2017-03-26T02:33:52.784Z,7.52
2017-03-26T02:34:51.244Z,14.03
2017-03-26T02:35:49.704Z,11.53
2017-03-26T02:36:48.149Z,8.82
2017-03-26T02:37:47.726Z,10.75
2017-03-26T02:38:46.244Z,10.67
2017-03-26T02:39:45.476Z,15.03
2017-03-26T02:40:44.717Z,8.98
2017-03-26T02:41:43.961Z,11.28
2017-03-26T02:42:43.202Z,9.38
2017-03-26T02:43:41.993Z,10.08
2017-03-26T02:44:40.477Z,13.02
2017-03-26T02:45:38.985Z,10.32
2017-03-26T02:46:38.204Z,8.08
2017-03-26T02:47:36.658Z,10.10
2017-03-26T02:48:35.900Z,11.28
2017-03-26T02:49:35.484Z,8.23
2017-03-26T02:50:34.697Z,8.28
2017-03-26T02:51:33.933Z,9.87
2017-03-26T02:52:32.440Z,9.10
2017-03-26T02:53:31.673Z,9.45
2017-03-26T02:54:30.135Z,10.05
2017-03-26T02:55:29.714Z,9.67
2017-03-26T02:56:28.168Z,12.42
2017-03-26T02:57:26.620Z,7.90
2017-03-26T02:58:25.093Z,9.57
2017-03-26T02:59:23.555Z,15.28
2017-03-26T03:00:22.871Z,10.48
2017-03-26T03:01:21.744Z,7.17
2017-03-26T03:02:20.972Z,11.90
2017-03-26T03:03:20.260Z,8.47
2017-03-26T03:04:19.516Z,8.83
2017-03-26T03:05:17.968Z,9.05
2017-03-26T03:06:17.207Z,10.73
2017-03-26T03:07:16.004Z,11.88
2017-03-26T03:08:14.511Z,9.08
2017-03-26T03:09:12.988Z,8.45
2017-03-26T03:10:12.276Z,7.58
2017-03-26T03:11:11.497Z,10.38
2017-03-26T03:12:10.757Z,9.45
2017-03-26T03:13:09.569Z,9.18
2017-03-26T03:14:08.017Z,12.07
2017-03-26T03:15:06.504Z,9.40
2017-03-26T03:16:05.833Z,13.82
2017-03-26T03:17:05.052Z,8.97
2017-03-26T03:18:03.541Z,11.63
2017-03-26T03:19:03.049Z,10.12
2017-03-26T03:20:02.308Z,7.48
2017-03-26T03:21:01.548Z,8.82
2017-03-26T03:22:00.764Z,9.68
2017-03-26T03:22:59.208Z,11.42
2017-03-26T03:23:58.431Z,8.62
2017-03-26T03:24:57.285Z,10.42
2017-03-26T03:25:55.748Z,10.18
2017-03-26T03:26:54.972Z,8.38
2017-03-26T03:27:54.183Z,12.27
2017-03-26T03:28:52.633Z,11.53
2017-03-26T03:29:51.848Z,10.60
2017-03-26T03:30:51.350Z,9.90
2017-03-26T03:31:50.577Z,10.37
2017-03-26T03:32:49.792Z,9.58
2017-03-26T03:33:48.261Z,13.98
2017-03-26T03:34:46.724Z,10.90
2017-03-26T03:35:45.167Z,13.28
2017-03-26T03:36:43.935Z,9.10
2017-03-26T03:37:43.161Z,11.37
2017-03-26T03:38:41.689Z,8.63
2017-03-26T03:39:40.132Z,11.15
2017-03-26T03:40:39.361Z,13.17
2017-03-26T03:41:37.819Z,13.32
2017-03-26T03:42:37.420Z,11.40
2017-03-26T03:43:36.669Z,8.92
2017-03-26T03:44:35.912Z,13.12
2017-03-26T03:45:34.369Z,13.27
2017-03-26T03:46:33.596Z,11.03
2017-03-26T03:47:32.808Z,8.80
2017-03-26T03:48:31.570Z,9.03
2017-03-26T03:49:30.012Z,10.12
2017-03-26T03:50:28.565Z,10.47
2017-03-26T03:51:27.840Z,11.07
2017-03-26T03:52:27.072Z,10.55
2017-03-26T03:53:25.594Z,12.52
2017-03-26T03:54:24.428Z,7.87
2017-03-26T03:55:22.902Z,8.75
2017-03-26T03:56:22.114Z,10.65
2017-03-26T03:57:20.578Z,9.00
2017-03-26T03:58:19.059Z,9.23
2017-03-26T03:59:17.596Z,11.40
2017-03-26T04:00:16.444Z,11.15
2017-03-26T04:01:14.966Z,10.92
2017-03-26T04:02:14.228Z,11.13
2017-03-26T04:03:14.122Z,9.75
2017-03-26T04:04:12.584Z,10.73
2017-03-26T04:05:11.044Z,9.10
2017-03-26T04:06:09.889Z,13.25
2017-03-26T04:07:10.098Z,11.63
2017-03-26T04:08:08.590Z,11.98
2017-03-26T04:09:07.080Z,11.80
2017-03-26T04:10:06.319Z,15.15
2017-03-26T04:11:05.601Z,13.32
2017-03-26T04:12:04.473Z,9.57
2017-03-26T04:13:03.700Z,9.77
2017-03-26T04:14:02.937Z,7.82
2017-03-26T04:15:02.160Z,15.78
2017-03-26T04:16:01.376Z,11.00
2017-03-26T04:17:00.615Z,10.83
2017-03-26T04:17:59.458Z,12.87
2017-03-26T04:18:58.681Z,11.45
2017-03-26T04:19:58.551Z,10.15
2017-03-26T04:20:57.773Z,10.83
2017-03-26T04:21:56.988Z,9.73
2017-03-26T04:22:56.240Z,9.45
2017-03-26T04:23:55.157Z,9.80
2017-03-26T04:24:54.377Z,11.90
2017-03-26T04:25:53.612Z,11.33
2017-03-26T04:26:52.106Z,9.95
2017-03-26T04:27:51.331Z,9.00
2017-03-26T04:28:50.548Z,12.23
2017-03-26T04:29:49.283Z,9.47
2017-03-26T04:30:48.528Z,13.25
2017-03-26T04:31:46.985Z,10.17
2017-03-26T04:32:46.213Z,9.50
2017-03-26T04:33:45.745Z,15.90
2017-03-26T04:34:44.205Z,11.83
2017-03-26T04:35:42.975Z,8.58
2017-03-26T04:36:41.437Z,8.77
2017-03-26T04:37:39.913Z,12.00
2017-03-26T04:38:38.360Z,11.32
2017-03-26T04:39:36.825Z,9.20
2017-03-26T04:40:35.297Z,9.02
2017-03-26T04:41:34.072Z,9.85
2017-03-26T04:42:33.348Z,11.93
2017-03-26T04:43:31.808Z,9.73
2017-03-26T04:44:30.239Z,11.37
2017-03-26T04:45:29.459Z,8.67
2017-03-26T04:46:27.928Z,14.13
2017-03-26T04:47:27.523Z,8.32
2017-03-26T04:48:26.000Z,11.68
2017-03-26T04:49:24.509Z,7.80
2017-03-26T04:50:23.020Z,13.03
2017-03-26T04:51:21.485Z,9.90
2017-03-26T04:52:19.992Z,8.58
2017-03-26T04:53:19.549Z,8.88
2017-03-26T04:54:18.785Z,7.47
2017-03-26T04:55:18.375Z,10.83
2017-03-26T04:56:17.654Z,11.08
2017-03-26T04:57:16.881Z,11.03
2017-03-26T04:58:16.125Z,10.57
2017-03-26T04:59:14.947Z,11.28
2017-03-26T05:00:14.197Z,9.32
2017-03-26T05:01:12.776Z,9.17
2017-03-26T05:02:11.280Z,7.52
2017-03-26T05:03:09.762Z,11.42
2017-03-26T05:04:08.220Z,10.43
2017-03-26T05:05:07.061Z,8.67
2017-03-26T05:06:06.303Z,10.20
2017-03-26T05:07:05.560Z,9.67
2017-03-26T05:08:04.054Z,12.87
2017-03-26T05:09:03.350Z,10.55
2017-03-26T05:10:01.799Z,11.97
2017-03-26T05:11:01.332Z,12.93
2017-03-26T05:12:00.560Z,11.75
2017-03-26T05:12:59.793Z,9.57
2017-03-26T05:13:58.256Z,13.12
2017-03-26T05:14:56.726Z,12.77
2017-03-26T05:15:55.957Z,7.38
2017-03-26T05:16:55.528Z,10.95
2017-03-26T05:17:54.005Z,11.67
2017-03-26T05:18:53.232Z,12.90
2017-03-26T05:19:51.705Z,10.87
2017-03-26T05:20:50.938Z,8.02
2017-03-26T05:21:50.228Z,9.48
2017-03-26T05:22:49.878Z,9.55
2017-03-26T05:23:48.324Z,10.75
2017-03-26T05:24:46.824Z,11.78
2017-03-26T05:25:45.269Z,9.30
2017-03-26T05:26:44.502Z,10.67
2017-03-26T05:27:43.722Z,12.42
2017-03-26T05:28:42.471Z,11.38
2017-03-26T05:29:40.928Z,9.85
2017-03-26T05:30:40.152Z,10.32
2017-03-26T05:31:38.638Z,14.38
2017-03-26T05:32:37.110Z,11.42
2017-03-26T05:33:35.572Z,11.48
2017-03-26T05:34:34.321Z,13.13
2017-03-26T05:35:33.554Z,11.08
2017-03-26T05:36:32.789Z,11.12
2017-03-26T05:37:31.240Z,10.02
2017-03-26T05:38:29.704Z,10.32
2017-03-26T05:39:28.916Z,12.75
2017-03-26T05:40:28.436Z,11.50
2017-03-26T05:41:27.722Z,9.30
2017-03-26T05:42:26.952Z,11.23
2017-03-26T05:43:26.209Z,9.32
2017-03-26T05:44:24.841Z,10.73
2017-03-26T05:45:23.353Z,8.83
2017-03-26T05:46:22.152Z,8.90
2017-03-26T05:47:20.598Z,11.50
2017-03-26T05:48:19.048Z,9.72
2017-03-26T05:49:17.576Z,8.88
2017-03-26T05:50:16.023Z,13.93
2017-03-26T05:51:14.528Z,9.70
2017-03-26T05:52:14.060Z,11.43
2017-03-26T05:53:12.548Z,9.98
2017-03-26T05:54:11.021Z,13.28
2017-03-26T05:55:10.289Z,10.25
2017-03-26T05:56:08.760Z,11.32
2017-03-26T05:57:07.228Z,11.42
2017-03-26T05:58:06.146Z,9.50
2017-03-26T05:59:04.656Z,7.50
2017-03-26T06:00:03.120Z,9.88
2017-03-26T06:01:01.564Z,11.03
2017-03-26T06:02:00.011Z,10.77
2017-03-26T06:02:59.230Z,9.60
2017-03-26T06:03:58.805Z,9.68
2017-03-26T06:04:58.053Z,10.47
2017-03-26T06:05:56.496Z,8.48
2017-03-26T06:06:54.944Z,10.48
2017-03-26T06:07:53.404Z,11.92
2017-03-26T06:08:52.612Z,11.28
2017-03-26T06:09:52.175Z,11.13
2017-03-26T06:10:50.632Z,9.80
2017-03-26T06:11:49.077Z,11.33
2017-03-26T06:12:47.534Z,9.65
2017-03-26T06:13:46.762Z,10.80
2017-03-26T06:14:45.224Z,10.62
2017-03-26T06:15:44.785Z,8.28
2017-03-26T06:16:43.291Z,8.30
2017-03-26T06:17:41.725Z,7.87
2017-03-26T06:18:40.199Z,6.68
2017-03-26T06:19:39.413Z,7.27
2017-03-26T06:20:38.685Z,7.60
2017-03-26T06:21:37.513Z,13.33
2017-03-26T06:22:36.790Z,7.82
2017-03-26T06:23:35.249Z,9.13
2017-03-26T06:24:34.493Z,8.40
2017-03-26T06:25:32.973Z,8.42
2017-03-26T06:26:32.188Z,9.13
2017-03-26T06:27:31.713Z,11.60
2017-03-26T06:28:30.147Z,9.77
2017-03-26T06:29:28.609Z,8.92
2017-03-26T06:30:27.856Z,9.78
2017-03-26T06:31:27.068Z,13.63
2017-03-26T06:32:25.536Z,9.18
2017-03-26T06:33:25.125Z,7.70
2017-03-26T06:34:23.612Z,9.28
2017-03-26T06:35:22.104Z,10.07
2017-03-26T06:36:20.561Z,10.97
2017-03-26T06:37:19.009Z,11.92
2017-03-26T06:38:18.261Z,11.45
2017-03-26T06:39:17.050Z,8.65
2017-03-26T06:40:15.517Z,9.57
2017-03-26T06:41:13.981Z,9.38
2017-03-26T06:42:12.491Z,9.17
2017-03-26T06:43:11.718Z,10.63
2017-03-26T06:44:10.244Z,9.95
2017-03-26T06:45:09.783Z,10.43
2017-03-26T06:46:09.095Z,8.63
2017-03-26T06:47:07.552Z,8.08
2017-03-26T06:48:06.822Z,9.02
2017-03-26T06:49:05.305Z,9.90
2017-03-26T06:50:03.777Z,8.63
2017-03-26T06:51:02.526Z,8.85
2017-03-26T06:52:01.004Z,9.38
2017-03-26T06:52:59.476Z,10.87
2017-03-26T06:53:58.697Z,10.30
2017-03-26T06:54:57.258Z,7.90
2017-03-26T06:55:55.802Z,8.00
2017-03-26T06:56:55.144Z,8.43
2017-03-26T06:57:53.616Z,8.28
2017-03-26T06:58:52.121Z,9.35
2017-03-26T06:59:51.349Z,10.17
2017-03-26T07:00:50.621Z,9.17
2017-03-26T07:01:49.067Z,9.25
2017-03-26T07:02:48.602Z,9.52
2017-03-26T07:03:47.837Z,10.03
2017-03-26T07:04:47.109Z,9.70
2017-03-26T07:05:46.356Z,10.30
2017-03-26T07:06:45.597Z,14.47
2017-03-26T07:07:44.048Z,9.87
2017-03-26T07:08:43.580Z,9.80
2017-03-26T07:09:42.801Z,10.43
2017-03-26T07:10:42.055Z,8.82
2017-03-26T07:11:40.516Z,10.55
2017-03-26T07:12:39.743Z,10.05
2017-03-26T07:13:38.189Z,10.67
2017-03-26T07:14:37.032Z,10.08
2017-03-26T07:15:35.476Z,10.22
2017-03-26T07:16:33.931Z,9.42
2017-03-26T07:17:33.176Z,9.90
2017-03-26T07:18:31.628Z,10.35
2017-03-26T07:19:30.085Z,7.87
2017-03-26T07:20:29.663Z,9.40
2017-03-26T07:21:28.134Z,11.10
2017-03-26T07:22:26.657Z,9.68
2017-03-26T07:23:25.890Z,10.10
2017-03-26T07:24:27.921Z,11.88
2017-03-26T07:25:27.130Z,10.88
2017-03-26T07:26:26.704Z,9.62
2017-03-26T07:27:25.665Z,8.85
2017-03-26T07:28:25.004Z,10.97
2017-03-26T07:29:23.771Z,12.78
2017-03-26T07:30:22.308Z,12.22
2017-03-26T07:31:21.624Z,10.48
2017-03-26T07:32:20.457Z,10.48
2017-03-26T07:33:18.984Z,8.62
2017-03-26T07:34:22.302Z,9.90
2017-03-26T07:35:20.988Z,11.13
2017-03-26T07:36:19.486Z,9.57
2017-03-26T07:37:21.938Z,10.20
2017-03-26T07:38:20.608Z,10.77
2017-03-26T07:39:19.857Z,11.05
2017-03-26T07:40:18.388Z,11.27
2017-03-26T07:41:16.876Z,8.15
2017-03-26T07:42:15.432Z,12.87
2017-03-26T07:43:15.052Z,9.25
2017-03-26T07:44:13.659Z,11.85
2017-03-26T07:45:12.976Z,9.47
2017-03-26T07:46:11.612Z,8.10
2017-03-26T07:47:10.905Z,9.65
2017-03-26T07:48:10.153Z,9.65
2017-03-26T07:49:08.996Z,8.08
2017-03-26T07:50:07.465Z,13.50
2017-03-26T07:51:06.899Z,12.18
2017-03-26T07:52:06.136Z,9.00
2017-03-26T07:53:04.615Z,7.43
2017-03-26T07:54:03.092Z,6.15
2017-03-26T07:55:01.891Z,7.62
2017-03-26T07:56:01.100Z,5.97
2017-03-26T07:57:00.331Z,7.78
2017-03-26T07:57:58.861Z,7.18
2017-03-26T07:58:57.383Z,7.13
2017-03-26T07:59:56.613Z,8.93
2017-03-26T08:00:55.493Z,8.23
2017-03-26T08:01:53.986Z,7.78
2017-03-26T08:02:52.487Z,8.75
2017-03-26T08:03:51.765Z,7.00
2017-03-26T08:04:50.989Z,8.92
2017-03-26T08:05:50.220Z,11.65
2017-03-26T08:06:50.550Z,11.13
2017-03-26T08:07:49.850Z,7.18
2017-03-26T08:08:48.321Z,7.50
2017-03-26T08:09:46.785Z,9.40
2017-03-26T08:10:46.016Z,8.45
2017-03-26T08:11:45.233Z,5.90
2017-03-26T08:12:44.877Z,7.15
2017-03-26T08:13:43.386Z,8.15
2017-03-26T08:14:41.867Z,5.90
2017-03-26T08:15:41.079Z,5.47
2017-03-26T08:16:39.549Z,9.62
2017-03-26T08:17:38.066Z,8.17
2017-03-26T08:18:36.994Z,5.62
2017-03-26T08:19:36.289Z,7.92
2017-03-26T08:20:35.548Z,6.58
2017-03-26T08:21:34.953Z,6.10
2017-03-26T08:22:33.847Z,7.07
2017-03-26T08:23:33.433Z,4.95
2017-03-26T08:24:33.340Z,5.40
2017-03-26T08:25:32.598Z,8.25
2017-03-26T08:26:31.116Z,4.67
2017-03-26T08:27:29.997Z,8.50
2017-03-26T08:28:28.873Z,8.07
2017-03-26T08:29:27.345Z,5.48
2017-03-26T08:30:26.126Z,5.68
2017-03-26T08:31:24.650Z,6.12
2017-03-26T08:32:24.339Z,6.78
2017-03-26T08:33:23.601Z,5.97
2017-03-26T08:34:22.101Z,5.83
2017-03-26T08:35:21.912Z,4.37
2017-03-26T08:36:20.697Z,5.48
2017-03-26T08:37:19.241Z,5.93
2017-03-26T08:38:18.513Z,5.68
2017-03-26T08:39:17.751Z,5.53
2017-03-26T08:40:17.002Z,7.55
2017-03-26T08:41:15.513Z,5.70
2017-03-26T08:42:14.292Z,8.53
2017-03-26T08:43:12.779Z,7.28
2017-03-26T08:44:12.012Z,7.97
2017-03-26T08:45:11.270Z,9.53
2017-03-26T08:46:09.773Z,4.52
2017-03-26T08:47:08.267Z,6.78
2017-03-26T08:48:07.797Z,5.67
2017-03-26T08:49:06.301Z,6.03
2017-03-26T08:50:04.816Z,6.35
2017-03-26T08:51:03.433Z,7.50
2017-03-26T08:52:02.036Z,5.77
2017-03-26T08:53:01.331Z,6.58
2017-03-26T08:54:00.970Z,5.87
2017-03-26T08:55:00.188Z,7.98
2017-03-26T08:55:59.469Z,7.87
2017-03-26T08:56:58.712Z,6.42
2017-03-26T08:57:57.170Z,6.60
2017-03-26T08:58:55.636Z,5.30
2017-03-26T08:59:54.404Z,4.28
2017-03-26T09:00:52.952Z,6.47
2017-03-26T09:01:51.459Z,6.52
2017-03-26T09:02:49.927Z,8.25
2017-03-26T09:03:49.158Z,7.68
2017-03-26T09:04:47.646Z,6.12
2017-03-26T09:05:46.517Z,5.60
2017-03-26T09:06:44.978Z,6.07
2017-03-26T09:07:43.524Z,5.92
2017-03-26T09:08:41.983Z,4.40
2017-03-26T09:09:40.489Z,6.50
2017-03-26T09:10:38.945Z,4.78
2017-03-26T09:11:38.473Z,6.23
2017-03-26T09:12:37.762Z,5.90
2017-03-26T09:13:37.017Z,4.68
2017-03-26T09:14:35.475Z,6.30
2017-03-26T09:15:33.989Z,8.07
2017-03-26T09:16:33.225Z,7.60
2017-03-26T09:17:32.830Z,7.48
2017-03-26T09:18:32.773Z,8.00
2017-03-26T09:19:32.005Z,6.75
2017-03-26T09:20:30.571Z,5.05
2017-03-26T09:21:29.666Z,5.25
2017-03-26T09:22:28.196Z,5.08
2017-03-26T09:23:27.011Z,7.97
2017-03-26T09:24:25.533Z,8.70
2017-03-26T09:25:24.105Z,7.35
2017-03-26T09:26:22.905Z,6.50
2017-03-26T09:27:21.449Z,4.73
2017-03-26T09:28:19.893Z,4.15
2017-03-26T09:29:18.695Z,8.47
2017-03-26T09:30:17.729Z,7.12
2017-03-26T09:31:17.029Z,7.72
2017-03-26T09:32:16.812Z,5.25
2017-03-26T09:33:15.318Z,4.95
2017-03-26T09:34:13.825Z,7.90
2017-03-26T09:35:14.067Z,7.30
2017-03-26T09:36:12.592Z,7.05
2017-03-26T09:37:11.061Z,4.13
2017-03-26T09:38:10.302Z,6.40
2017-03-26T09:39:08.796Z,6.15
2017-03-26T09:40:07.300Z,5.48
2017-03-26T09:41:06.693Z,3.65
2017-03-26T09:42:05.189Z,4.43
2017-03-26T09:43:03.649Z,4.62
2017-03-26T09:44:02.133Z,5.13
2017-03-26T09:45:00.618Z,3.77
2017-03-26T09:46:00.003Z,4.07
2017-03-26T09:46:59.571Z,4.28
2017-03-26T09:47:58.050Z,3.40
2017-03-26T09:48:57.297Z,3.48
2017-03-26T09:49:55.785Z,3.97
2017-03-26T09:50:54.277Z,8.98
2017-03-26T09:51:53.538Z,9.12
2017-03-26T09:52:52.513Z,5.10
2017-03-26T09:53:52.146Z,3.18
2017-03-26T09:54:51.429Z,3.23
2017-03-26T09:55:50.833Z,3.17
2017-03-26T09:56:50.063Z,3.05
2017-03-26T09:57:48.525Z,2.68
2017-03-26T09:58:48.913Z,3.82
2017-03-26T09:59:47.379Z,2.43
2017-03-26T10:00:45.850Z,3.55
2017-03-26T10:01:44.334Z,5.23
2017-03-26T10:02:43.568Z,2.98
2017-03-26T10:03:42.817Z,4.72
2017-03-26T10:04:42.357Z,3.03
2017-03-26T10:05:41.644Z,3.00
2017-03-26T10:06:40.126Z,3.63
2017-03-26T10:07:38.629Z,4.17
2017-03-26T10:08:37.917Z,3.22
2017-03-26T10:09:37.280Z,4.48
2017-03-26T10:10:36.936Z,3.02
2017-03-26T10:11:36.184Z,3.43
2017-03-26T10:12:34.685Z,5.45
2017-03-26T10:13:33.906Z,2.22
2017-03-26T10:14:32.357Z,5.00
2017-03-26T10:15:31.588Z,3.18
2017-03-26T10:16:30.392Z,3.20
2017-03-26T10:17:30.261Z,3.78
2017-03-26T10:18:28.860Z,3.95
2017-03-26T10:19:27.330Z,3.47
2017-03-26T10:20:25.805Z,3.60
2017-03-26T10:21:24.856Z,5.58
2017-03-26T10:22:23.721Z,5.53
2017-03-26T10:23:23.059Z,3.03
2017-03-26T10:24:22.465Z,2.83
2017-03-26T10:25:21.726Z,2.57
2017-03-26T10:26:20.438Z,2.77
2017-03-26T10:27:19.696Z,2.50
2017-03-26T10:28:19.237Z,4.33
2017-03-26T10:29:18.508Z,2.65
2017-03-26T10:30:17.013Z,2.33
2017-03-26T10:31:15.652Z,3.85
2017-03-26T10:32:14.136Z,3.15
2017-03-26T10:33:12.609Z,2.95
2017-03-26T10:34:13.038Z,3.13
2017-03-26T10:35:11.585Z,3.17
2017-03-26T10:36:10.057Z,3.03
2017-03-26T10:37:08.566Z,3.47
2017-03-26T10:38:07.064Z,3.03
2017-03-26T10:39:05.537Z,3.65
2017-03-26T10:40:04.395Z,4.00
2017-03-26T10:41:03.637Z,4.53
2017-03-26T10:42:02.096Z,3.07
2017-03-26T10:43:01.507Z,3.57
2017-03-26T10:43:59.983Z,3.63
2017-03-26T10:44:59.238Z,2.77
2017-03-26T10:45:58.869Z,2.68
2017-03-26T10:46:57.335Z,2.17
2017-03-26T10:47:55.941Z,1.93
2017-03-26T10:48:55.161Z,1.52
2017-03-26T10:49:53.645Z,2.57
2017-03-26T10:50:52.112Z,2.92
2017-03-26T10:51:50.891Z,2.08
2017-03-26T10:52:49.359Z,2.17
2017-03-26T10:53:47.832Z,2.87
2017-03-26T10:54:47.062Z,3.55
2017-03-26T10:55:46.302Z,3.55
2017-03-26T10:56:45.547Z,1.97
2017-03-26T10:57:44.333Z,2.10
2017-03-26T10:58:42.792Z,1.48
2017-03-26T10:59:41.259Z,2.23
2017-03-26T11:00:39.778Z,1.87
2017-03-26T11:01:39.890Z,3.38
2017-03-26T11:02:39.154Z,2.17
2017-03-26T11:03:37.936Z,3.40
2017-03-26T11:04:37.467Z,2.50
2017-03-26T11:05:35.920Z,2.02
2017-03-26T11:06:34.384Z,2.25
2017-03-26T11:07:34.145Z,2.20
2017-03-26T11:08:32.601Z,2.38
2017-03-26T11:09:32.359Z,2.60
2017-03-26T11:10:31.637Z,2.10
2017-03-26T11:11:30.633Z,1.77
2017-03-26T11:12:29.113Z,3.17
2017-03-26T11:13:27.577Z,1.55
2017-03-26T11:14:26.088Z,3.35
2017-03-26T11:15:26.862Z,2.80
2017-03-26T11:16:25.360Z,4.43
2017-03-26T11:17:24.773Z,3.12
2017-03-26T11:18:23.993Z,2.05
2017-03-26T11:19:23.249Z,2.02
2017-03-26T11:20:21.767Z,3.43
2017-03-26T11:21:20.625Z,1.48
2017-03-26T11:22:20.661Z,2.00
2017-03-26T11:23:19.252Z,3.97
2017-03-26T11:24:17.775Z,2.38
2017-03-26T11:25:17.037Z,3.12
2017-03-26T11:26:15.544Z,2.50
2017-03-26T11:27:16.388Z,2.58
2017-03-26T11:28:14.860Z,1.97
2017-03-26T11:29:13.332Z,1.88
2017-03-26T11:30:12.591Z,3.37
2017-03-26T11:31:11.871Z,3.58
2017-03-26T11:32:10.337Z,2.37
2017-03-26T11:33:09.077Z,1.97
2017-03-26T11:34:08.353Z,2.20
2017-03-26T11:35:06.805Z,3.65
2017-03-26T11:36:05.298Z,3.90
2017-03-26T11:37:03.796Z,3.43
2017-03-26T11:38:02.296Z,1.85
2017-03-26T11:39:02.652Z,5.07
2017-03-26T11:40:01.205Z,2.15
2017-03-26T11:41:00.464Z,2.72
2017-03-26T11:41:59.676Z,2.57
2017-03-26T11:42:58.208Z,3.15
2017-03-26T11:43:57.444Z,2.78
2017-03-26T11:44:57.072Z,4.10
2017-03-26T11:45:55.544Z,4.17
2017-03-26T11:46:54.008Z,2.77
2017-03-26T11:47:53.264Z,2.48
2017-03-26T11:48:52.491Z,3.93
2017-03-26T11:49:50.974Z,2.33
2017-03-26T11:50:50.503Z,2.17
2017-03-26T11:51:49.020Z,2.12
2017-03-26T11:52:47.491Z,4.35
2017-03-26T11:53:46.782Z,4.27
2017-03-26T11:54:46.037Z,2.58
2017-03-26T11:55:45.275Z,3.82
2017-03-26T11:56:44.885Z,2.57
2017-03-26T11:57:44.119Z,3.20
2017-03-26T11:58:43.359Z,4.32
2017-03-26T11:59:42.612Z,3.20
2017-03-26T12:00:41.247Z,2.92
2017-03-26T12:01:40.505Z,2.35
2017-03-26T12:02:39.355Z,5.02
2017-03-26T12:03:37.813Z,3.13
2017-03-26T12:04:36.322Z,2.30
2017-03-26T12:05:35.577Z,2.80
2017-03-26T12:06:34.106Z,2.53
2017-03-26T12:07:32.575Z,3.65
2017-03-26T12:08:32.237Z,3.20
2017-03-26T12:09:30.693Z,2.00
2017-03-26T12:10:29.241Z,3.22
2017-03-26T12:11:28.527Z,4.45
2017-03-26T12:12:26.972Z,2.78
2017-03-26T12:13:26.269Z,2.37
2017-03-26T12:14:25.536Z,3.53
2017-03-26T12:15:24.789Z,3.25
2017-03-26T12:16:24.052Z,3.65
2017-03-26T12:17:23.362Z,4.02
2017-03-26T12:18:21.868Z,4.42
2017-03-26T12:19:20.429Z,2.70
2017-03-26T12:20:19.180Z,3.80
2017-03-26T12:21:17.716Z,4.33
2017-03-26T12:22:17.754Z,5.70
2017-03-26T12:23:16.216Z,3.37
2017-03-26T12:24:14.733Z,3.95
2017-03-26T12:25:13.490Z,4.30
2017-03-26T12:26:13.269Z,4.88
2017-03-26T12:27:11.832Z,3.15
2017-03-26T12:28:10.418Z,3.72
2017-03-26T12:29:08.952Z,4.35
2017-03-26T12:30:07.431Z,2.40
2017-03-26T12:31:06.731Z,3.38
2017-03-26T12:32:06.300Z,3.65
2017-03-26T12:33:04.817Z,2.85
2017-03-26T12:34:04.086Z,2.58
2017-03-26T12:35:02.546Z,2.55
2017-03-26T12:36:01.825Z,3.53
2017-03-26T12:37:01.135Z,2.50
2017-03-26T12:38:00.689Z,3.57
2017-03-26T12:38:59.199Z,2.52
2017-03-26T12:39:58.457Z,2.12
2017-03-26T12:40:56.992Z,2.75
2017-03-26T12:41:55.470Z,2.45
2017-03-26T12:42:53.933Z,3.52
2017-03-26T12:43:53.739Z,3.57
2017-03-26T12:44:52.966Z,3.35
2017-03-26T12:45:51.436Z,3.03
2017-03-26T12:46:49.955Z,3.30
2017-03-26T12:47:48.485Z,3.08
2017-03-26T12:48:47.777Z,3.85
2017-03-26T12:49:47.497Z,2.85
2017-03-26T12:50:46.029Z,4.22
2017-03-26T12:51:44.504Z,3.03
2017-03-26T12:52:43.008Z,2.85
2017-03-26T12:53:42.522Z,3.85
2017-03-26T12:54:41.802Z,3.22
2017-03-26T12:55:41.473Z,2.92